Time;durP1;ratioP1;P1;durP2;ratioP2;P2;SDS_P1;SDS_P2;PMS_P1;PMS_P2;Temp;Humidity;BMP_temperature;BMP_pressure;BME280_temperature;BME280_humidity;BME280_pressure;Samples;Min_cycle;Max_cycle;Signal;HPM_P1;HPM_P2
2022/03/29 00:01:25;;;;;;;25.83;15.77;;;;;;;16.48;34.34;95304.91;4933581;29;20500;-59
2022/03/29 00:03:52;;;;;;;29.63;16.67;;;;;;;16.12;35.02;95295.75;4933168;29;20537;-54
2022/03/29 00:06:19;;;;;;;27.17;14.80;;;;;;;15.82;35.56;95301.34;4933889;29;20474;-57
2022/03/29 00:08:46;;;;;;;24.73;15.73;;;;;;;15.89;35.72;95299.94;4933729;29;20487;-53
2022/03/29 00:11:13;;;;;;;31.23;17.17;;;;;;;15.91;35.51;95294.38;4933726;29;20865;-53
2022/03/29 00:13:40;;;;;;;28.93;16.20;;;;;;;16.14;34.80;95294.44;4933995;29;20448;-59
2022/03/29 00:16:07;;;;;;;26.83;15.83;;;;;;;16.00;35.04;95288.19;4932994;29;20453;-53
2022/03/29 00:18:51;;;;;;;24.90;15.73;;;;;;;15.94;35.45;95272.69;4932933;29;20480;-59
2022/03/29 00:21:43;;;;;;;27.63;15.30;;;;;;;15.53;35.94;95287.31;4933559;29;21111;-54
2022/03/29 00:24:09;;;;;;;30.47;15.87;;;;;;;15.57;36.57;95280.41;4932841;29;20444;-60
2022/03/29 00:26:36;;;;;;;32.70;17.13;;;;;;;15.70;35.89;95277.91;4933623;29;20467;-56
2022/03/29 00:29:03;;;;;;;30.33;16.37;;;;;;;16.06;34.90;95267.78;4933067;29;20518;-56
2022/03/29 00:31:30;;;;;;;26.33;16.00;;;;;;;16.28;34.62;95268.09;4933281;29;20459;-50
2022/03/29 00:33:57;;;;;;;25.40;16.37;;;;;;;16.03;35.10;95271.00;4933047;29;20440;-58
2022/03/29 00:36:24;;;;;;;28.53;16.60;;;;;;;16.37;34.37;95269.03;4932461;29;20895;-60
2022/03/29 00:38:51;;;;;;;25.00;15.10;;;;;;;16.71;33.78;95261.00;4932897;29;20457;-55
2022/03/29 00:41:18;;;;;;;27.13;16.27;;;;;;;16.71;33.63;95261.81;4932625;29;20508;-58
2022/03/29 00:43:45;;;;;;;27.43;15.53;;;;;;;16.64;34.27;95256.03;4933100;29;20524;-49
2022/03/29 00:46:12;;;;;;;30.40;15.80;;;;;;;16.83;33.83;95256.88;4932174;29;20448;-56
2022/03/29 00:48:39;;;;;;;24.23;15.37;;;;;;;16.96;33.45;95245.56;4932441;29;20504;-56
2022/03/29 00:51:06;;;;;;;28.30;16.13;;;;;;;16.77;33.47;95244.00;4932427;29;20464;-55
2022/03/29 00:53:33;;;;;;;33.50;15.30;;;;;;;16.59;33.98;95261.41;4933393;29;20683;-52
2022/03/29 00:56:02;;;;;;;22.73;15.27;;;;;;;16.72;34.51;95247.47;4931872;29;20447;-58
2022/03/29 00:58:30;;;;;;;27.17;15.97;;;;;;;16.79;33.70;95242.63;4932581;29;20543;-52
2022/03/29 01:01:01;;;;;;;29.77;15.50;;;;;;;16.80;34.13;95244.22;4932152;29;20451;-57
2022/03/29 01:03:30;;;;;;;30.13;16.20;;;;;;;16.79;33.66;95239.19;4932516;29;20473;-58
2022/03/29 01:05:57;;;;;;;24.27;15.17;;;;;;;16.67;33.51;95239.63;4932307;29;20536;-56
2022/03/29 01:08:25;;;;;;;28.53;16.93;;;;;;;16.06;34.55;95244.78;4932928;29;20479;-55
2022/03/29 01:10:53;;;;;;;23.87;15.87;;;;;;;14.69;37.29;95246.13;4931793;29;20943;-54
2022/03/29 01:13:21;;;;;;;24.50;15.67;;;;;;;14.64;37.98;95238.25;4932267;29;20448;-58
2022/03/29 01:15:49;;;;;;;23.33;16.17;;;;;;;15.57;36.16;95228.38;4932165;29;20947;-56
2022/03/29 01:18:19;;;;;;;26.13;15.80;;;;;;;16.11;35.13;95230.75;4932760;29;20559;-58
2022/03/29 01:20:53;;;;;;;23.60;16.50;;;;;;;16.36;34.60;95222.53;4931917;29;20460;-57
2022/03/29 01:23:20;;;;;;;26.60;15.33;;;;;;;16.56;34.35;95217.00;4932312;29;20456;-51
2022/03/29 01:25:50;;;;;;;27.63;15.63;;;;;;;16.63;33.99;95203.41;4932161;29;20499;-51
2022/03/29 01:28:20;;;;;;;29.27;15.70;;;;;;;16.61;33.90;95208.19;4932191;29;20878;-56
2022/03/29 01:30:53;;;;;;;25.07;14.37;;;;;;;16.28;34.36;95199.34;4931441;29;20549;-52
2022/03/29 01:33:20;;;;;;;23.77;15.17;;;;;;;15.60;36.01;95205.91;4931208;29;20548;-55
2022/03/29 01:35:48;;;;;;;22.83;14.80;;;;;;;16.18;34.36;95196.81;4931618;29;20971;-55
2022/03/29 01:38:15;;;;;;;25.83;15.20;;;;;;;16.25;34.90;95191.97;4932149;29;20472;-59
2022/03/29 01:40:42;;;;;;;23.60;15.37;;;;;;;16.37;34.11;95187.06;4931406;29;20452;-50
2022/03/29 01:43:08;;;;;;;20.63;14.80;;;;;;;16.25;34.19;95189.34;4931794;29;20471;-58
2022/03/29 01:45:35;;;;;;;25.10;14.90;;;;;;;16.07;34.40;95185.59;4931272;29;20441;-60
2022/03/29 01:48:02;;;;;;;22.73;13.77;;;;;;;16.16;34.16;95180.44;4932034;29;20445;-58
2022/03/29 01:50:30;;;;;;;22.40;13.70;;;;;;;16.28;33.55;95175.53;4931219;29;20436;-55
2022/03/29 01:52:58;;;;;;;25.53;14.60;;;;;;;16.35;33.66;95173.31;4931373;29;20543;-55
2022/03/29 01:55:25;;;;;;;23.77;14.57;;;;;;;16.10;33.86;95186.84;4931118;29;20810;-57
2022/03/29 01:57:53;;;;;;;24.40;13.97;;;;;;;15.96;34.69;95175.41;4931856;29;20954;-57
2022/03/29 02:00:33;;;;;;;20.87;13.57;;;;;;;15.79;34.62;95180.34;4930133;29;20964;-58
2022/03/29 02:03:04;;;;;;;24.57;13.80;;;;;;;15.84;34.26;95172.34;4931924;29;20448;-51
2022/03/29 02:05:32;;;;;;;24.33;14.37;;;;;;;15.31;35.38;95173.41;4931378;29;20449;-58
2022/03/29 02:08:00;;;;;;;28.17;15.33;;;;;;;14.98;36.35;95165.19;4932051;29;20441;-55
2022/03/29 02:10:28;;;;;;;28.07;14.57;;;;;;;15.42;35.24;95159.06;4931140;29;20480;-56
2022/03/29 02:12:55;;;;;;;29.33;15.07;;;;;;;15.47;35.67;95161.66;4931712;29;20436;-56
2022/03/29 02:15:22;;;;;;;28.60;15.43;;;;;;;15.40;35.20;95155.88;4931576;29;20496;-59
2022/03/29 02:17:50;;;;;;;25.70;15.77;;;;;;;15.39;36.15;95147.16;4931668;29;20978;-56
2022/03/29 02:20:18;;;;;;;27.10;15.03;;;;;;;15.27;36.11;95151.25;4930910;29;20448;-57
2022/03/29 02:22:46;;;;;;;27.73;15.03;;;;;;;15.27;35.76;95147.53;4931993;29;20519;-53
2022/03/29 02:25:13;;;;;;;28.50;15.37;;;;;;;15.52;35.49;95143.91;4931259;29;20531;-60
2022/03/29 02:27:41;;;;;;;30.10;14.77;;;;;;;15.27;35.70;95142.25;4931276;29;21050;-57
2022/03/29 02:30:10;;;;;;;23.77;15.00;;;;;;;15.15;35.90;95143.69;4930576;29;20476;-57
2022/03/29 02:32:38;;;;;;;28.57;15.10;;;;;;;15.10;36.09;95141.09;4931522;29;20445;-56
2022/03/29 02:35:06;;;;;;;28.03;16.07;;;;;;;15.28;35.63;95137.75;4930460;29;20444;-56
2022/03/29 02:37:33;;;;;;;31.03;19.50;;;;;;;15.04;36.27;95142.19;4931645;29;20467;-55
2022/03/29 02:40:01;;;;;;;41.77;20.47;;;;;;;15.25;35.96;95149.66;4930660;29;20823;-54
2022/03/29 02:42:27;;;;;;;33.27;19.77;;;;;;;15.31;35.73;95147.00;4931517;29;21053;-56
2022/03/29 02:44:55;;;;;;;31.80;18.97;;;;;;;15.12;35.96;95152.97;4931278;29;20459;-56
2022/03/29 02:47:22;;;;;;;28.77;18.87;;;;;;;14.90;37.06;95146.53;4931264;29;20455;-58
2022/03/29 02:49:48;;;;;;;37.97;20.73;;;;;;;15.29;36.18;95135.91;4930926;29;20476;-60
2022/03/29 02:52:15;;;;;;;36.03;20.10;;;;;;;14.93;36.66;95130.16;4931618;29;20821;-56
2022/03/29 02:54:42;;;;;;;43.63;21.80;;;;;;;14.86;36.92;95141.03;4931198;29;20441;-49
2022/03/29 02:57:10;;;;;;;37.57;21.23;;;;;;;14.75;37.10;95139.53;4932748;29;20861;-53
2022/03/29 02:59:37;;;;;;;31.47;16.27;;;;;;;14.68;37.06;95133.78;4934778;29;20786;-54
2022/03/29 03:02:04;;;;;;;32.17;17.97;;;;;;;13.65;38.71;95137.44;4935258;29;20454;-56
2022/03/29 03:04:32;;;;;;;33.40;17.93;;;;;;;14.09;38.22;95140.94;4934412;29;20455;-60
2022/03/29 03:07:00;;;;;;;29.57;16.73;;;;;;;13.70;39.32;95134.78;4934020;29;21018;-50
2022/03/29 03:09:26;;;;;;;30.17;16.70;;;;;;;13.26;39.83;95118.03;4934044;29;20539;-56
2022/03/29 03:11:55;;;;;;;28.90;16.33;;;;;;;13.26;39.92;95136.47;4935474;29;20480;-52
2022/03/29 03:14:22;;;;;;;30.90;16.43;;;;;;;13.50;38.93;95137.47;4934210;29;20566;-51
2022/03/29 03:16:49;;;;;;;35.30;16.17;;;;;;;13.97;38.33;95143.91;4934797;29;20459;-56
2022/03/29 03:19:35;;;;;;;37.50;16.87;;;;;;;14.32;37.32;95144.81;4933863;29;20452;-51
2022/03/29 03:22:03;;;;;;;39.43;17.70;;;;;;;14.34;37.44;95126.88;4934763;29;20939;-58
2022/03/29 03:24:30;;;;;;;33.47;19.50;;;;;;;14.27;37.73;95131.66;4933916;29;20464;-55
2022/03/29 03:26:57;;;;;;;33.57;20.50;;;;;;;14.15;37.88;95135.38;4934882;29;20482;-58
2022/03/29 03:29:24;;;;;;;36.73;19.03;;;;;;;14.01;38.09;95117.81;4933909;29;20491;-56
2022/03/29 03:31:51;;;;;;;34.97;18.70;;;;;;;14.28;37.79;95136.66;4934587;29;20810;-57
2022/03/29 03:34:18;;;;;;;33.07;18.60;;;;;;;14.19;38.17;95135.63;4934044;29;21309;-56
2022/03/29 03:36:45;;;;;;;38.07;18.77;;;;;;;14.02;38.46;95130.69;4934741;29;20899;-57
2022/03/29 03:39:11;;;;;;;33.20;18.00;;;;;;;13.95;37.90;95134.69;4933838;29;20491;-53
2022/03/29 03:41:40;;;;;;;36.63;17.63;;;;;;;14.09;38.03;95135.66;4933727;29;20458;-52
2022/03/29 03:44:07;;;;;;;35.70;18.87;;;;;;;14.07;38.33;95135.13;4933198;29;20449;-49
2022/03/29 03:46:33;;;;;;;38.33;19.37;;;;;;;14.08;37.90;95129.63;4934275;29;20452;-55
2022/03/29 03:49:01;;;;;;;37.77;18.43;;;;;;;13.89;38.06;95130.47;4933853;29;20502;-59
2022/03/29 03:51:28;;;;;;;39.37;18.33;;;;;;;13.95;37.88;95139.94;4933504;29;20463;-57
2022/03/29 03:53:55;;;;;;;39.40;18.37;;;;;;;13.94;39.38;95138.38;4933927;29;20555;-57
2022/03/29 03:56:23;;;;;;;31.43;17.23;;;;;;;14.22;39.05;95140.34;4933544;29;21047;-54
2022/03/29 03:58:50;;;;;;;32.83;17.20;;;;;;;14.21;39.02;95138.78;4933787;29;20448;-56
2022/03/29 04:01:17;;;;;;;37.67;18.80;;;;;;;14.05;38.72;95132.00;4932477;29;20448;-51
2022/03/29 04:03:44;;;;;;;40.57;20.20;;;;;;;13.83;38.50;95131.56;4933282;29;21021;-52
2022/03/29 04:06:11;;;;;;;38.20;19.70;;;;;;;14.07;38.47;95135.13;4916038;29;20456;-56
2022/03/29 04:08:38;;;;;;;37.53;21.27;;;;;;;14.14;39.07;95138.28;4932034;29;20448;-55
2022/03/29 04:11:06;;;;;;;37.73;22.10;;;;;;;14.36;38.24;95136.06;4932439;29;20452;-56
2022/03/29 04:13:34;;;;;;;43.27;24.07;;;;;;;14.31;38.20;95132.69;4933629;29;20461;-53
2022/03/29 04:16:02;;;;;;;47.90;25.77;;;;;;;14.22;38.28;95132.44;4933553;29;20436;-50
2022/03/29 04:18:29;;;;;;;50.37;26.40;;;;;;;14.23;37.86;95126.13;4933688;29;20459;-58
2022/03/29 04:21:01;;;;;;;50.97;25.23;;;;;;;13.97;39.01;95137.84;4932972;29;20448;-57
2022/03/29 04:23:28;;;;;;;57.67;28.70;;;;;;;13.89;38.60;95131.28;4933217;29;20565;-56
2022/03/29 04:25:55;;;;;;;57.50;32.13;;;;;;;13.93;38.36;95136.78;4932485;29;20448;-58
2022/03/29 04:28:22;;;;;;;71.50;34.33;;;;;;;13.77;38.89;95143.19;4933667;29;20491;-56
2022/03/29 04:30:50;;;;;;;59.53;31.33;;;;;;;13.88;38.73;95131.56;4932325;29;20476;-52
2022/03/29 04:33:17;;;;;;;62.07;29.00;;;;;;;13.69;38.85;95138.44;4932746;29;20448;-54
2022/03/29 04:35:44;;;;;;;66.03;26.97;;;;;;;13.40;39.31;95137.47;4932806;29;20551;-56
2022/03/29 04:38:10;;;;;;;61.17;27.83;;;;;;;13.65;39.03;95132.16;4932439;29;20480;-53
2022/03/29 04:40:37;;;;;;;54.90;27.07;;;;;;;13.67;38.68;95115.03;4932221;29;20963;-60
2022/03/29 04:43:04;;;;;;;53.90;26.97;;;;;;;13.67;38.89;95143.19;4933482;29;20534;-55
2022/03/29 04:45:31;;;;;;;59.10;28.53;;;;;;;13.71;38.87;95137.13;4932744;29;20539;-59
2022/03/29 04:47:59;;;;;;;59.33;27.83;;;;;;;13.71;38.62;95134.50;4932747;29;20484;-60
2022/03/29 04:50:26;;;;;;;64.97;27.57;;;;;;;13.62;39.52;95135.31;4932555;29;20583;-60
2022/03/29 04:52:53;;;;;;;99.10;50.30;;;;;;;13.41;39.16;95134.56;4916257;29;20448;-64
2022/03/29 04:55:20;;;;;;;60.87;29.70;;;;;;;13.39;39.38;95135.91;4933064;29;20463;-59
2022/03/29 04:57:49;;;;;;;70.10;30.57;;;;;;;13.37;39.73;95140.66;4933279;29;20444;-57
2022/03/29 05:00:20;;;;;;;62.20;30.73;;;;;;;13.33;39.03;95126.44;4932060;29;20986;-60
2022/03/29 05:02:48;;;;;;;58.03;29.67;;;;;;;13.49;39.19;95146.41;4933263;29;20448;-60
2022/03/29 05:05:15;;;;;;;63.77;28.20;;;;;;;13.60;38.95;95140.06;4932184;29;20977;-61
2022/03/29 05:07:43;;;;;;;55.20;28.70;;;;;;;13.55;39.21;95134.81;4933243;29;20437;-58
2022/03/29 05:10:11;;;;;;;51.00;28.47;;;;;;;13.63;38.50;95137.69;4932058;29;20852;-55
2022/03/29 05:12:44;;;;;;;55.30;28.03;;;;;;;13.76;38.89;95131.84;4932948;29;21173;-56
2022/03/29 05:15:12;;;;;;;64.03;28.40;;;;;;;13.80;38.61;95124.19;4932119;29;20444;-55
2022/03/29 05:17:42;;;;;;;55.13;28.23;;;;;;;13.83;38.91;95128.94;4932699;29;20447;-60
2022/03/29 05:20:10;;;;;;;113.57;67.93;;;;;;;13.73;38.95;95132.41;4930961;29;20986;-61
2022/03/29 05:22:48;;;;;;;87.30;55.60;;;;;;;13.52;38.20;95135.34;4932397;29;20475;-56
2022/03/29 05:25:17;;;;;;;54.33;29.53;;;;;;;13.39;38.75;95141.97;4914855;29;20928;-60
2022/03/29 05:27:44;;;;;;;45.43;28.67;;;;;;;13.60;38.32;95111.09;4932375;29;21001;-56
2022/03/29 05:30:12;;;;;;;55.10;29.47;;;;;;;13.93;38.11;95127.06;4931836;29;20494;-56
2022/03/29 05:32:39;;;;;;;51.13;27.37;;;;;;;14.25;37.32;95129.25;4932426;29;20452;-61
2022/03/29 05:35:08;;;;;;;58.37;27.70;;;;;;;14.08;38.15;95132.25;4931822;29;20521;-59
2022/03/29 05:37:37;;;;;;;59.57;26.70;;;;;;;14.16;37.75;95130.88;4931515;29;20479;-58
2022/03/29 05:40:07;;;;;;;53.17;27.20;;;;;;;14.26;37.47;95136.13;4931572;29;20428;-60
2022/03/29 05:42:44;;;;;;;49.43;26.00;;;;;;;14.34;37.69;95132.16;4932192;29;20456;-60
2022/03/29 05:45:12;;;;;;;50.93;25.53;;;;;;;14.31;37.97;95127.41;4929361;29;20444;-59
2022/03/29 05:50:27;;;;;;;56.23;25.00;;;;;;;14.70;37.15;95131.66;4930194;29;20587;-57
2022/03/29 05:52:56;;;;;;;54.93;25.60;;;;;;;14.85;36.83;95128.88;4931494;29;20532;-61
2022/03/29 05:55:24;;;;;;;43.50;22.03;;;;;;;14.76;36.73;95127.13;4931701;29;20812;-60
2022/03/29 05:57:52;;;;;;;43.93;23.97;;;;;;;14.85;36.69;95123.59;4931909;29;20959;-57
2022/03/29 06:00:26;;;;;;;52.33;22.67;;;;;;;15.03;36.26;95120.31;4931057;29;20439;-60
2022/03/29 06:02:53;;;;;;;50.20;24.77;;;;;;;15.19;36.23;95113.84;4931914;29;20515;-59
2022/03/29 06:05:20;;;;;;;51.70;23.87;;;;;;;15.02;36.50;95125.84;4931821;29;20448;-60
2022/03/29 06:07:48;;;;;;;49.70;23.53;;;;;;;14.46;37.75;95120.22;4932105;29;20497;-62
2022/03/29 06:10:14;;;;;;;49.57;25.00;;;;;;;15.16;36.76;95124.94;4930705;29;21101;-55
2022/03/29 06:12:45;;;;;;;39.50;22.27;;;;;;;14.69;36.72;95118.75;4932073;29;20455;-56
2022/03/29 06:15:13;;;;;;;44.13;22.80;;;;;;;14.93;36.78;95122.22;4931507;29;20448;-52
2022/03/29 06:17:40;;;;;;;45.47;23.80;;;;;;;15.33;36.57;95113.19;4932070;29;20454;-58
2022/03/29 06:20:09;;;;;;;46.77;22.30;;;;;;;15.57;35.70;95121.91;4930934;29;20451;-63
2022/03/29 06:22:40;;;;;;;47.70;22.53;;;;;;;15.61;35.95;95120.28;4931674;29;20456;-61
2022/03/29 06:25:08;;;;;;;52.97;22.67;;;;;;;15.92;36.16;95116.25;4931642;29;20439;-65
2022/03/29 06:27:35;;;;;;;50.00;23.17;;;;;;;16.11;35.19;95103.84;4931728;29;20452;-56
2022/03/29 06:30:04;;;;;;;50.73;22.20;;;;;;;16.18;35.18;95109.56;4931066;29;20482;-58
2022/03/29 06:32:32;;;;;;;43.27;21.67;;;;;;;16.35;35.52;95115.16;4935229;29;20436;-55
2022/03/29 06:34:59;;;;;;;48.03;22.30;;;;;;;16.50;35.41;95107.03;4935270;29;20443;-61
2022/03/29 06:37:26;;;;;;;47.73;22.40;;;;;;;16.45;35.00;95099.16;4935198;29;20488;-63
2022/03/29 06:39:53;;;;;;;61.13;23.53;;;;;;;16.53;34.88;95106.44;4935340;29;20452;-60
2022/03/29 06:42:20;;;;;;;52.17;22.83;;;;;;;16.57;35.29;95104.81;4935257;29;20464;-60
2022/03/29 06:44:47;;;;;;;53.47;24.90;;;;;;;16.65;34.86;95106.03;4934768;29;20551;-57
2022/03/29 06:47:15;;;;;;;48.07;23.27;;;;;;;16.73;34.91;95095.56;4935295;29;20452;-54
2022/03/29 06:49:42;;;;;;;50.53;22.33;;;;;;;16.93;35.03;95097.13;4935048;29;20995;-60
2022/03/29 06:52:10;;;;;;;38.40;21.70;;;;;;;16.94;34.74;95096.03;4935233;29;20990;-58
2022/03/29 06:54:37;;;;;;;41.97;20.60;;;;;;;17.22;34.18;95087.84;4934702;29;20542;-59
2022/03/29 06:57:05;;;;;;;39.17;19.90;;;;;;;17.80;33.17;95082.06;4935429;29;20474;-58
2022/03/29 06:59:32;;;;;;;37.43;18.63;;;;;;;17.12;33.67;95072.16;4934551;29;20475;-61
2022/03/29 07:02:13;;;;;;;35.40;19.87;;;;;;;17.62;33.41;95088.25;4935122;29;20444;-61
2022/03/29 07:04:41;;;;;;;40.77;19.37;;;;;;;17.83;33.07;95086.75;4934930;29;20440;-60
2022/03/29 07:07:09;;;;;;;39.00;20.60;;;;;;;17.98;32.96;95078.50;4935062;29;20444;-57
2022/03/29 07:12:21;;;;;;;28.80;18.30;;;;;;;17.84;33.17;95072.44;4935142;29;20455;-61
2022/03/29 07:14:50;;;;;;;39.00;18.97;;;;;;;18.11;32.75;95073.19;4934538;29;20741;-58
2022/03/29 07:17:17;;;;;;;39.27;19.03;;;;;;;18.27;33.21;95076.28;4934831;29;20443;-57
2022/03/29 07:19:46;;;;;;;33.67;18.67;;;;;;;18.22;32.42;95071.09;4934302;29;20467;-58
2022/03/29 07:22:13;;;;;;;33.37;17.50;;;;;;;18.62;31.65;95067.56;4934591;29;21047;-59
2022/03/29 07:24:40;;;;;;;29.50;18.23;;;;;;;18.79;31.57;95072.22;4934268;29;21119;-61
2022/03/29 07:27:08;;;;;;;34.23;17.93;;;;;;;18.23;31.50;95071.91;4934884;29;20452;-58
2022/03/29 07:29:36;;;;;;;33.07;17.13;;;;;;;18.09;32.48;95070.03;4934076;29;20863;-59
2022/03/29 07:32:04;;;;;;;32.00;16.33;;;;;;;17.46;31.63;95073.69;4934459;29;20448;-59
2022/03/29 07:34:35;;;;;;;32.13;17.10;;;;;;;17.50;32.59;95066.75;4934491;29;20448;-58
2022/03/29 07:37:03;;;;;;;29.17;17.43;;;;;;;17.74;32.19;95060.16;4934521;29;21042;-59
2022/03/29 07:39:30;;;;;;;42.03;18.13;;;;;;;18.52;31.68;95057.16;4934139;29;20452;-57
2022/03/29 07:41:57;;;;;;;22.80;15.27;;;;;;;18.61;31.19;95055.38;4933905;29;20502;-58
2022/03/29 07:44:24;;;;;;;24.17;15.73;;;;;;;18.78;30.42;95060.00;4934040;29;20444;-59
2022/03/29 07:46:52;;;;;;;25.80;16.10;;;;;;;19.23;30.13;95051.69;4934184;29;20846;-55
2022/03/29 07:49:19;;;;;;;26.27;16.43;;;;;;;19.34;29.83;95046.16;4934390;29;20556;-56
2022/03/29 07:52:06;;;;;;;27.03;15.37;;;;;;;18.80;30.41;95053.31;4933905;29;20444;-63
2022/03/29 07:54:32;;;;;;;31.87;15.97;;;;;;;19.10;29.58;95052.56;4934097;29;20428;-61
2022/03/29 07:56:59;;;;;;;28.90;16.63;;;;;;;19.30;29.88;95045.16;4934512;29;20979;-57
2022/03/29 07:59:26;;;;;;;22.37;14.87;;;;;;;19.53;29.89;95044.03;4933580;29;20514;-63
2022/03/29 08:01:54;;;;;;;20.07;13.77;;;;;;;19.55;28.91;95041.84;4933961;29;20502;-55
2022/03/29 08:04:21;;;;;;;23.33;13.20;;;;;;;19.35;28.37;95042.41;4933340;29;20491;-57
2022/03/29 08:06:48;;;;;;;21.27;12.77;;;;;;;18.32;29.69;95040.91;4934125;29;20495;-57
2022/03/29 08:09:15;;;;;;;21.77;12.43;;;;;;;19.18;28.83;95022.63;4933566;29;20448;-60
2022/03/29 08:11:42;;;;;;;19.80;11.17;;;;;;;18.91;28.47;95029.97;4933797;29;20494;-55
2022/03/29 08:14:09;;;;;;;20.07;11.70;;;;;;;19.56;28.56;95033.56;4933395;29;20784;-61
2022/03/29 08:16:36;;;;;;;27.07;13.07;;;;;;;18.76;29.15;95032.97;4933833;29;20444;-60
2022/03/29 08:19:03;;;;;;;29.47;14.30;;;;;;;19.47;28.68;95018.72;4934058;29;20444;-61
2022/03/29 08:21:49;;;;;;;22.07;12.90;;;;;;;19.79;28.61;95015.66;4933301;29;20452;-57
2022/03/29 08:24:21;;;;;;;20.53;12.53;;;;;;;20.25;28.46;95007.94;4933184;29;21002;-58
2022/03/29 08:26:50;;;;;;;25.63;12.43;;;;;;;20.65;28.06;95004.00;4934047;29;20444;-59
2022/03/29 08:29:17;;;;;;;21.97;12.40;;;;;;;20.82;27.98;95001.31;4933202;29;20436;-61
2022/03/29 08:31:47;;;;;;;22.37;12.57;;;;;;;20.69;27.49;94996.94;4933083;29;20487;-59
2022/03/29 08:34:15;;;;;;;24.00;13.50;;;;;;;21.02;27.80;94990.00;4933504;29;20847;-58
2022/03/29 08:36:42;;;;;;;18.73;11.90;;;;;;;21.32;27.44;94987.38;4933630;29;20547;-64
2022/03/29 08:39:10;;;;;;;27.27;11.10;;;;;;;21.32;26.37;94982.06;4933103;29;20450;-60
2022/03/29 08:41:58;;;;;;;20.97;10.83;;;;;;;21.15;26.10;94982.91;4933661;29;20428;-56
2022/03/29 08:44:26;;;;;;;23.53;9.87;;;;;;;20.95;26.73;94973.69;4932657;29;20448;-59
2022/03/29 08:46:53;;;;;;;21.30;10.93;;;;;;;21.49;26.49;94976.66;4933287;29;20464;-58
2022/03/29 08:49:22;;;;;;;20.00;11.03;;;;;;;21.55;26.50;94965.47;4932998;29;20448;-58
2022/03/29 08:51:49;;;;;;;19.83;10.40;;;;;;;20.93;26.23;94959.91;4932824;29;20484;-59
2022/03/29 08:54:16;;;;;;;25.80;11.03;;;;;;;20.77;26.19;94958.88;4932146;29;20452;-55
2022/03/29 08:56:43;;;;;;;17.43;10.90;;;;;;;20.43;26.39;94950.94;4933545;29;20463;-59
2022/03/29 08:59:09;;;;;;;20.20;11.10;;;;;;;20.90;26.59;94949.09;4932603;29;20452;-58
2022/03/29 09:01:37;;;;;;;19.60;9.93;;;;;;;20.93;25.75;94954.59;4932984;29;20451;-59
2022/03/29 09:04:07;;;;;;;22.17;10.20;;;;;;;21.35;26.48;94938.78;4932857;29;20511;-58
2022/03/29 09:06:54;;;;;;;17.37;9.43;;;;;;;21.73;25.62;94942.16;4932985;29;20982;-60
2022/03/29 09:09:35;;;;;;;19.47;10.33;;;;;;;21.02;25.64;94930.63;4932492;29;20490;-58
2022/03/29 09:12:14;;;;;;;23.47;9.97;;;;;;;21.60;25.55;94940.53;4932435;29;20597;-57
2022/03/29 09:14:59;;;;;;;26.03;10.57;;;;;;;21.95;24.79;94929.31;4932082;29;20452;-61
2022/03/29 09:17:33;;;;;;;18.93;9.77;;;;;;;22.28;24.87;94918.69;4932843;29;20452;-61
2022/03/29 09:20:04;;;;;;;25.43;9.90;;;;;;;22.70;24.86;94909.50;4932221;29;20923;-58
2022/03/29 09:22:52;;;;;;;15.00;9.00;;;;;;;22.28;23.72;94918.69;4932633;29;20468;-60
2022/03/29 09:25:20;;;;;;;24.97;9.47;;;;;;;21.94;23.98;94902.97;4931970;29;20511;-56
2022/03/29 09:27:53;;;;;;;23.13;9.70;;;;;;;22.19;24.22;94909.22;4932814;29;20858;-58
2022/03/29 09:30:21;;;;;;;15.97;9.40;;;;;;;21.87;24.02;94908.03;4932011;29;20444;-55
2022/03/29 09:32:51;;;;;;;18.83;8.97;;;;;;;22.56;23.57;94893.00;4932405;29;20456;-54
2022/03/29 09:35:18;;;;;;;20.13;9.40;;;;;;;22.56;23.48;94895.69;4932016;29;20999;-58
2022/03/29 09:37:45;;;;;;;17.17;8.53;;;;;;;22.94;23.09;94893.53;4932273;29;20464;-54
2022/03/29 09:40:13;;;;;;;19.50;9.60;;;;;;;23.36;23.41;94887.97;4932185;29;20448;-60
2022/03/29 09:43:10;;;;;;;19.17;9.10;;;;;;;21.72;23.50;94888.03;4915183;29;20475;-62
2022/03/29 09:45:42;;;;;;;23.33;9.13;;;;;;;21.80;23.67;94881.13;4931988;29;20535;-58
2022/03/29 09:48:23;;;;;;;21.27;8.70;;;;;;;22.94;23.74;94877.47;4932475;29;20460;-61
2022/03/29 09:50:55;;;;;;;14.20;8.40;;;;;;;23.88;22.64;94867.38;4931863;29;20480;-60
2022/03/29 09:53:37;;;;;;;22.70;9.17;;;;;;;24.15;22.94;94865.88;4932498;29;20507;-62
2022/03/29 09:56:06;;;;;;;19.27;8.33;;;;;;;24.33;22.38;94865.22;4931536;29;20448;-59
2022/03/29 09:58:34;;;;;;;24.23;9.37;;;;;;;24.03;21.58;94869.38;4932124;29;20699;-58
2022/03/29 10:01:02;;;;;;;21.53;8.30;;;;;;;22.32;22.97;94871.53;4931168;29;20197;-59
2022/03/29 10:03:33;;;;;;;14.80;7.97;;;;;;;23.31;22.52;94861.47;4931903;29;20303;-56
2022/03/29 10:06:03;;;;;;;14.40;7.67;;;;;;;22.48;22.14;94859.13;4931651;29;20204;-59
2022/03/29 10:11:21;;;;;;;19.40;8.10;;;;;;;23.73;22.12;94844.00;4931809;29;20564;-61
2022/03/29 10:13:49;;;;;;;21.40;8.57;;;;;;;24.00;21.55;94829.88;4932072;29;20437;-59
2022/03/29 10:16:17;;;;;;;18.83;8.10;;;;;;;24.67;21.53;94829.75;4931639;29;20181;-60
2022/03/29 10:18:46;;;;;;;14.57;7.57;;;;;;;23.66;21.19;94833.09;4931601;29;20197;-58
2022/03/29 10:21:15;;;;;;;24.93;7.73;;;;;;;24.34;21.05;94825.84;4931178;29;20213;-63
2022/03/29 10:23:46;;;;;;;15.67;6.53;;;;;;;24.96;21.05;94821.31;4931786;29;20263;-62
2022/03/29 10:26:16;;;;;;;13.43;6.17;;;;;;;24.33;20.79;94819.69;4932068;29;20620;-57
2022/03/29 10:28:46;;;;;;;21.10;7.43;;;;;;;24.43;20.96;94815.75;4931615;29;20291;-59
2022/03/29 10:31:36;;;;;;;17.43;7.80;;;;;;;23.36;21.54;94823.81;4931179;29;20242;-62
2022/03/29 10:34:13;;;;;;;18.40;7.47;;;;;;;23.50;21.52;94818.88;4931397;29;20717;-60
2022/03/29 10:37:08;;;;;;;20.33;7.33;;;;;;;23.27;21.80;94825.78;4931547;29;20350;-55
2022/03/29 10:40:05;;;;;;;23.77;6.77;;;;;;;23.04;21.96;94830.84;4931278;29;20626;-61
2022/03/29 10:42:44;;;;;;;23.60;7.20;;;;;;;23.84;22.08;94804.97;4923976;29;20782;-62
2022/03/29 10:45:18;;;;;;;15.13;7.07;;;;;;;24.24;21.10;94805.69;4931002;29;20451;-61
2022/03/29 10:48:00;;;;;;;27.73;7.17;;;;;;;23.40;21.07;94798.72;4932162;29;20200;-58
2022/03/29 10:51:02;;;;;;;25.73;7.40;;;;;;;23.14;21.58;94796.41;4931299;29;20204;-59
2022/03/29 10:53:35;;;;;;;22.97;7.50;;;;;;;22.71;22.01;94796.22;4891139;29;20709;-63
2022/03/29 10:56:17;;;;;;;20.97;6.50;;;;;;;22.14;21.74;94790.88;4924333;29;20463;-56
2022/03/29 10:59:02;;;;;;;21.40;7.07;;;;;;;22.88;21.84;94793.31;4931387;29;20487;-60
2022/03/29 11:01:33;;;;;;;25.57;7.53;;;;;;;23.44;21.13;94766.75;4931505;29;20450;-60
2022/03/29 11:04:07;;;;;;;23.93;7.70;;;;;;;24.11;20.34;94774.75;4931597;29;20299;-59
2022/03/29 11:06:36;;;;;;;19.03;6.80;;;;;;;24.27;20.55;94778.22;4931326;29;20216;-63
2022/03/29 11:09:15;;;;;;;25.43;6.67;;;;;;;23.59;20.88;94768.72;4931217;29;20248;-61
2022/03/29 11:11:47;;;;;;;23.83;6.53;;;;;;;23.23;20.99;94768.78;4931387;29;20870;-58
2022/03/29 11:14:45;;;;;;;20.67;6.93;;;;;;;22.74;21.22;94766.16;4931125;29;20192;-62
2022/03/29 11:17:36;;;;;;;21.43;6.80;;;;;;;22.35;21.14;94769.44;4923545;29;20245;-58
2022/03/29 11:20:38;;;;;;;19.27;6.20;;;;;;;23.17;20.78;94748.75;4934599;29;20787;-61
2022/03/29 11:23:06;;;;;;;24.10;6.07;;;;;;;23.26;21.97;94744.81;4934449;29;20443;-62
2022/03/29 11:25:41;;;;;;;16.67;6.50;;;;;;;23.14;21.41;94748.28;4934461;29;20208;-59
2022/03/29 11:28:11;;;;;;;21.60;5.63;;;;;;;22.17;21.24;94752.84;4934726;29;20212;-60
2022/03/29 11:30:38;;;;;;;18.50;6.10;;;;;;;21.95;21.60;94755.91;4917037;29;20621;-58
2022/03/29 11:33:07;;;;;;;20.50;6.30;;;;;;;22.40;21.85;94742.53;4935016;29;20295;-55
2022/03/29 11:35:36;;;;;;;22.37;6.00;;;;;;;22.19;21.24;94744.50;4933959;29;20272;-55
2022/03/29 11:38:08;;;;;;;16.33;5.07;;;;;;;21.61;21.37;94737.53;4933972;29;20233;-61
2022/03/29 11:40:36;;;;;;;15.53;5.63;;;;;;;22.03;21.31;94746.25;4933864;29;20999;-63